Time;durP1;ratioP1;P1;durP2;ratioP2;P2;SDS_P1;SDS_P2;PMS_P1;PMS_P2;Temp;Humidity;BMP_temperature;BMP_pressure;BME280_temperature;BME280_humidity;BME280_pressure;Samples;Min_cycle;Max_cycle;Signal;HPM_P1;HPM_P2
2024/04/10 00:02:20;;;;;;;3.38;1.17;;;;;;;8.30;100.00;99388.31;5222224;27;20364;-84
2024/04/10 00:04:45;;;;;;;1.92;0.70;;;;;;;8.28;100.00;99390.38;5223222;27;19996;-83
2024/04/10 00:07:12;;;;;;;5.70;0.75;;;;;;;8.26;100.00;99390.53;5199709;27;20092;-83
2024/04/10 00:09:37;;;;;;;7.18;0.80;;;;;;;8.30;100.00;99402.63;5205382;27;20029;-84
2024/04/10 00:12:03;;;;;;;1.83;0.75;;;;;;;8.29;100.00;99411.75;5200955;27;20007;-82
2024/04/10 00:14:28;;;;;;;3.08;0.80;;;;;;;8.17;100.00;99410.41;5236836;27;20024;-83
2024/04/10 00:16:54;;;;;;;3.30;0.75;;;;;;;8.18;100.00;99428.28;5198882;27;20020;-82
2024/04/10 00:19:20;;;;;;;3.53;0.90;;;;;;;8.07;100.00;99413.34;5194943;27;19996;-82
2024/04/10 00:21:47;;;;;;;5.80;0.65;;;;;;;8.08;100.00;99431.16;5226045;27;19997;-83
2024/04/10 00:24:13;;;;;;;3.15;0.73;;;;;;;8.07;100.00;99434.88;5202413;27;20016;-82
2024/04/10 00:26:38;;;;;;;4.40;0.70;;;;;;;8.01;100.00;99438.25;5196816;27;20045;-83
2024/04/10 00:29:04;;;;;;;4.40;0.90;;;;;;;7.79;100.00;99412.03;5200964;27;20000;-83
2024/04/10 00:31:29;;;;;;;5.50;0.80;;;;;;;7.63;100.00;99397.56;5195911;27;20048;-82
2024/04/10 00:33:54;;;;;;;2.22;0.82;;;;;;;7.75;100.00;99422.28;5188211;27;20015;-82
2024/04/10 00:36:20;;;;;;;2.33;1.10;;;;;;;7.68;100.00;99421.31;5201065;27;20004;-83
2024/04/10 00:38:45;;;;;;;5.75;1.00;;;;;;;7.62;100.00;99425.53;5219161;27;20063;-82
2024/04/10 00:41:10;;;;;;;6.20;0.85;;;;;;;7.64;100.00;99444.19;5192045;27;20000;-82
2024/04/10 00:43:36;;;;;;;3.58;0.90;;;;;;;7.55;100.00;99445.22;5198193;27;19997;-82
2024/04/10 00:46:18;;;;;;;3.20;0.88;;;;;;;7.48;100.00;99450.41;5196533;27;20000;-82
2024/04/10 00:48:44;;;;;;;4.63;0.75;;;;;;;7.43;100.00;99442.84;5216561;27;20000;-82
2024/04/10 00:51:17;;;;;;;4.03;0.80;;;;;;;7.39;100.00;99457.66;5226118;27;20000;-82
2024/04/10 00:53:42;;;;;;;3.97;0.63;;;;;;;7.38;100.00;99466.72;5224808;27;20016;-83
2024/04/10 00:56:11;;;;;;;3.58;0.98;;;;;;;7.43;100.00;99463.53;5201469;27;19996;-83
2024/04/10 00:58:38;;;;;;;1.60;0.70;;;;;;;7.32;100.00;99466.56;5229434;27;20004;-81
2024/04/10 01:01:04;;;;;;;3.25;0.75;;;;;;;7.25;100.00;99472.59;5200903;27;20008;-82
2024/04/10 01:03:31;;;;;;;3.13;0.55;;;;;;;7.13;100.00;99452.41;5203422;27;19997;-83
2024/04/10 01:06:06;;;;;;;5.88;0.85;;;;;;;7.15;100.00;99471.91;5223147;27;19993;-83
2024/04/10 01:08:35;;;;;;;5.40;0.70;;;;;;;7.10;100.00;99473.41;5200855;27;20205;-83
2024/04/10 01:11:04;;;;;;;6.35;1.10;;;;;;;7.16;100.00;99473.59;5185922;27;19996;-84
2024/04/10 01:13:34;;;;;;;6.40;0.80;;;;;;;7.13;100.00;99457.78;5199129;27;20023;-82
2024/04/10 01:15:59;;;;;;;2.72;0.70;;;;;;;6.96;100.00;99439.91;5210883;27;20012;-83
2024/04/10 01:18:25;;;;;;;4.80;0.70;;;;;;;6.93;100.00;99454.53;5223352;27;20025;-81
2024/04/10 01:20:50;;;;;;;5.30;0.68;;;;;;;6.88;100.00;99466.78;5196219;27;20007;-83
2024/04/10 01:23:19;;;;;;;4.35;0.70;;;;;;;6.72;100.00;99454.97;5224609;27;20008;-82
2024/04/10 01:25:45;;;;;;;;;;;;;;;6.93;100.00;99488.66;5202576;27;19996;-83
2024/04/10 01:28:10;;;;;;;2.42;0.80;;;;;;;6.70;100.00;99466.88;5223907;27;19924;-81
2024/04/10 01:30:35;;;;;;;4.63;1.17;;;;;;;6.85;100.00;99492.16;5198525;27;20027;-83
2024/04/10 01:33:01;;;;;;;2.55;1.10;;;;;;;6.78;100.00;99491.94;5201162;27;19996;-83
2024/04/10 01:35:26;;;;;;;4.95;1.85;;;;;;;6.73;100.00;99461.19;5234142;27;19997;-83
2024/04/10 01:37:52;;;;;;;2.60;0.82;;;;;;;6.80;100.00;99489.94;5192391;27;19997;-83
2024/04/10 01:40:17;;;;;;;1.27;0.68;;;;;;;6.86;100.00;99491.16;5219517;27;19997;-83
2024/04/10 01:42:44;;;;;;;5.68;0.85;;;;;;;6.98;100.00;99492.53;5199988;27;19996;-84
2024/04/10 01:45:10;;;;;;;1.38;0.52;;;;;;;6.99;100.00;99512.22;5217958;27;20020;-84
2024/04/10 01:47:35;;;;;;;9.23;0.80;;;;;;;6.86;100.00;99496.53;5236194;27;20024;-84
2024/04/10 01:50:00;;;;;;;3.60;1.00;;;;;;;6.89;100.00;99500.75;5206531;27;20035;-84
2024/04/10 01:52:26;;;;;;;2.85;0.70;;;;;;;6.88;100.00;99496.38;5197928;27;20088;-84
2024/04/10 01:54:52;;;;;;;2.88;0.80;;;;;;;6.88;100.00;99523.28;5195690;27;20017;-83
2024/04/10 01:57:17;;;;;;;3.50;0.70;;;;;;;6.70;100.00;99508.06;5223769;27;19994;-84
2024/04/10 01:59:42;;;;;;;2.30;0.70;;;;;;;6.89;100.00;99522.25;5223187;27;20000;-82
2024/04/10 02:02:08;;;;;;;3.53;0.63;;;;;;;6.89;100.00;99516.88;5201394;27;20008;-83
2024/04/10 02:04:34;;;;;;;3.40;0.85;;;;;;;6.76;100.00;99515.50;5224978;27;19992;-82
2024/04/10 02:07:00;;;;;;;2.45;0.55;;;;;;;6.51;100.00;99490.34;5225015;27;19992;-83
2024/04/10 02:09:25;;;;;;;4.55;0.68;;;;;;;6.75;100.00;99540.69;5195525;27;19997;-84
2024/04/10 02:11:50;;;;;;;3.95;0.80;;;;;;;6.73;100.00;99533.78;5199700;27;19996;-83
2024/04/10 02:14:16;;;;;;;2.38;0.80;;;;;;;6.65;100.00;99531.91;5205947;27;20007;-84
2024/04/10 02:16:42;;;;;;;4.65;1.13;;;;;;;6.59;100.00;99521.78;5220938;27;20003;-84
2024/04/10 02:19:08;;;;;;;10.30;0.65;;;;;;;6.62;100.00;99545.66;5221546;27;19997;-83
2024/04/10 02:21:34;;;;;;;3.58;1.02;;;;;;;6.61;100.00;99544.00;5200537;27;20092;-83
2024/04/10 02:23:59;;;;;;;2.63;0.70;;;;;;;6.62;100.00;99534.06;5201818;27;20010;-83
2024/04/10 02:26:24;;;;;;;4.32;0.90;;;;;;;6.88;100.00;99555.56;5225876;27;20000;-84
2024/04/10 02:28:50;;;;;;;6.72;0.98;;;;;;;6.48;100.00;99511.31;5196476;27;20005;-83
2024/04/10 02:31:15;;;;;;;3.40;0.60;;;;;;;6.64;100.00;99549.03;5224523;27;20053;-85
2024/04/10 02:33:40;;;;;;;2.90;0.82;;;;;;;6.60;100.00;99542.28;5202699;27;19996;-83
2024/04/10 02:36:07;;;;;;;6.88;0.95;;;;;;;6.67;100.00;99555.94;5197173;27;19997;-83
2024/04/10 02:38:34;;;;;;;6.63;0.70;;;;;;;6.65;100.00;99574.09;5194412;27;20011;-83
2024/04/10 02:41:00;;;;;;;3.95;0.75;;;;;;;6.56;100.00;99540.94;5200270;27;19997;-84
2024/04/10 02:43:25;;;;;;;2.63;0.80;;;;;;;6.71;100.00;99565.41;5230151;27;20040;-86
2024/04/10 02:45:57;;;;;;;3.50;0.68;;;;;;;6.74;100.00;99567.75;5224269;27;19996;-85
2024/04/10 02:48:23;;;;;;;3.42;0.70;;;;;;;6.67;100.00;99570.22;5220652;27;20073;-85
2024/04/10 02:50:49;;;;;;;7.35;0.80;;;;;;;6.57;100.00;99561.44;5201176;27;20008;-84
2024/04/10 02:53:15;;;;;;;7.00;0.60;;;;;;;6.71;100.00;99570.78;5204070;27;20136;-85
2024/04/10 02:55:48;;;;;;;4.07;0.50;;;;;;;6.66;100.00;99552.41;5197070;27;19997;-84
2024/04/10 02:58:14;;;;;;;3.58;0.60;;;;;;;6.86;100.00;99571.00;5202771;27;20016;-85
2024/04/10 03:00:46;;;;;;;6.18;0.57;;;;;;;6.94;100.00;99571.03;5197330;27;20000;-85
2024/04/10 03:03:12;;;;;;;3.30;0.50;;;;;;;6.95;100.00;99567.34;5187726;27;20020;-79
2024/04/10 03:05:44;;;;;;;3.45;0.70;;;;;;;6.98;100.00;99567.03;5308419;21;20202;-78
2024/04/10 03:08:10;;;;;;;4.60;0.82;;;;;;;7.06;100.00;99571.59;5319332;26;19996;-79
2024/04/10 03:10:36;;;;;;;3.70;0.55;;;;;;;6.99;100.00;99566.84;5320096;27;19993;-79
2024/04/10 03:13:02;;;;;;;1.75;0.47;;;;;;;7.04;100.00;99579.81;5323293;27;20006;-80
2024/04/10 03:15:27;;;;;;;8.70;0.73;;;;;;;6.95;100.00;99583.50;5307682;26;20103;-80
2024/04/10 03:17:53;;;;;;;4.25;0.90;;;;;;;6.93;100.00;99582.81;5320863;26;20005;-80
2024/04/10 03:20:20;;;;;;;3.33;0.82;;;;;;;6.85;100.00;99585.47;5322853;26;20308;-81
2024/04/10 03:22:46;;;;;;;2.85;1.10;;;;;;;6.83;100.00;99584.78;5322009;26;20093;-80
2024/04/10 03:25:13;;;;;;;3.58;0.73;;;;;;;6.72;100.00;99567.91;5323656;26;20045;-81
2024/04/10 03:27:40;;;;;;;4.90;0.85;;;;;;;6.79;100.00;99593.16;5332605;26;19997;-80
2024/04/10 03:30:07;;;;;;;7.60;0.60;;;;;;;6.76;100.00;99593.50;5330851;26;20002;-80
2024/04/10 03:32:33;;;;;;;7.40;0.98;;;;;;;6.72;100.00;99599.34;5325775;26;19994;-78
2024/04/10 03:34:58;;;;;;;8.80;0.88;;;;;;;6.73;100.00;99604.56;5324806;26;19990;-77
2024/04/10 03:37:24;;;;;;;4.57;0.60;;;;;;;6.72;100.00;99602.03;5320256;26;20009;-78
2024/04/10 03:39:50;;;;;;;3.50;0.47;;;;;;;6.79;100.00;99619.22;5321154;27;20013;-78
2024/04/10 03:42:15;;;;;;;2.35;0.50;;;;;;;6.74;100.00;99608.94;5335284;26;20013;-77
2024/04/10 03:44:41;;;;;;;5.47;0.93;;;;;;;6.67;100.00;99605.19;5326376;26;20110;-78
2024/04/10 03:47:06;;;;;;;4.78;0.93;;;;;;;6.73;100.00;99612.66;5317423;26;20013;-78
2024/04/10 03:49:32;;;;;;;6.55;1.48;;;;;;;6.66;100.00;99614.28;5322772;26;20001;-78
2024/04/10 03:51:57;;;;;;;7.25;1.20;;;;;;;6.69;100.00;99603.19;5313054;26;20106;-77
2024/04/10 03:54:23;;;;;;;3.00;0.80;;;;;;;6.65;100.00;99606.34;5330497;26;20016;-78
2024/04/10 03:56:48;;;;;;;3.40;0.73;;;;;;;6.83;100.00;99627.81;5330888;26;20211;-75
2024/04/10 03:59:13;;;;;;;6.25;0.70;;;;;;;6.76;100.00;99615.00;5328296;26;19994;-76
2024/04/10 04:01:38;;;;;;;5.45;0.40;;;;;;;6.80;100.00;99612.84;5330510;26;20056;-74
2024/04/10 04:04:04;;;;;;;4.65;0.60;;;;;;;6.87;100.00;99627.34;5324570;26;20002;-74
2024/04/10 04:06:30;;;;;;;7.18;0.63;;;;;;;6.89;100.00;99638.78;5341936;26;20053;-75
2024/04/10 04:08:56;;;;;;;4.85;0.70;;;;;;;7.00;100.00;99641.19;5318002;26;20221;-75
2024/04/10 04:11:21;;;;;;;7.78;0.63;;;;;;;7.07;100.00;99652.16;5326956;26;20001;-77
2024/04/10 04:13:46;;;;;;;4.68;0.73;;;;;;;6.93;100.00;99639.31;5333695;26;20004;-77
2024/04/10 04:16:12;;;;;;;7.22;1.00;;;;;;;7.06;100.00;99666.63;5326210;26;20242;-76
2024/04/10 04:18:37;;;;;;;3.05;0.88;;;;;;;7.09;100.00;99668.97;5318339;26;19998;-75
2024/04/10 04:21:03;;;;;;;5.68;0.77;;;;;;;7.01;100.00;99659.00;5345987;26;20089;-76
2024/04/10 04:23:29;;;;;;;1.83;0.60;;;;;;;7.05;100.00;99667.63;5330609;26;20132;-76
2024/04/10 04:25:54;;;;;;;4.60;0.47;;;;;;;6.97;100.00;99660.34;5315646;26;20001;-75
2024/04/10 04:28:21;;;;;;;8.40;1.08;;;;;;;7.19;100.00;99693.09;5319087;26;19990;-76
2024/04/10 04:30:47;;;;;;;4.13;1.10;;;;;;;7.18;100.00;99702.19;5317071;26;19998;-76
2024/04/10 04:33:13;;;;;;;1.77;0.63;;;;;;;7.07;100.00;99667.47;5324967;26;20013;-75
2024/04/10 04:35:39;;;;;;;3.17;0.60;;;;;;;7.13;100.00;99678.44;5326337;27;19990;-75
2024/04/10 04:38:05;;;;;;;4.43;0.98;;;;;;;7.25;100.00;99697.84;5329889;26;19993;-75
2024/04/10 04:40:31;;;;;;;4.30;0.65;;;;;;;7.17;100.00;99690.56;5328275;26;20010;-75
2024/04/10 04:42:58;;;;;;;5.72;0.70;;;;;;;7.08;100.00;99675.38;5325441;26;20039;-78
2024/04/10 04:45:23;;;;;;;5.72;0.60;;;;;;;7.18;100.00;99681.50;5318266;26;20001;-74
2024/04/10 04:47:49;;;;;;;4.10;0.70;;;;;;;7.27;100.00;99693.13;5322705;26;20277;-74
2024/04/10 04:50:16;;;;;;;7.32;1.15;;;;;;;7.27;100.00;99708.44;5324058;26;20020;-74
2024/04/10 04:52:42;;;;;;;5.38;0.85;;;;;;;7.15;100.00;99706.03;5316274;26;20008;-73
2024/04/10 04:55:07;;;;;;;5.40;0.52;;;;;;;7.15;100.00;99708.72;5319018;26;20202;-74
2024/04/10 04:57:33;;;;;;;4.55;0.60;;;;;;;7.14;100.00;99712.41;5310253;26;20002;-74
2024/04/10 04:59:59;;;;;;;5.50;0.57;;;;;;;7.01;100.00;99707.44;5328393;26;20036;-78
2024/04/10 05:02:25;;;;;;;4.03;0.43;;;;;;;6.91;100.00;99712.09;5322770;26;20006;-74
2024/04/10 05:04:57;;;;;;;4.47;0.70;;;;;;;6.84;100.00;99729.00;5324273;26;19989;-74
2024/04/10 05:07:23;;;;;;;3.38;0.60;;;;;;;6.77;100.00;99732.31;5317309;26;20025;-75
2024/04/10 05:09:51;;;;;;;5.30;0.90;;;;;;;6.77;100.00;99737.72;5322152;26;19993;-74
2024/04/10 05:12:17;;;;;;;3.45;0.98;;;;;;;6.73;100.00;99722.91;5324574;26;20006;-74
2024/04/10 05:14:50;;;;;;;5.45;0.60;;;;;;;6.92;100.00;99748.75;5329571;26;20012;-74
2024/04/10 05:17:16;;;;;;;2.58;0.90;;;;;;;6.94;100.00;99738.69;5322435;26;20009;-74
2024/04/10 05:19:42;;;;;;;3.85;0.80;;;;;;;7.12;100.00;99737.78;5333080;26;20217;-75
2024/04/10 05:22:07;;;;;;;1.85;0.43;;;;;;;7.30;100.00;99740.44;5329817;26;20051;-74
2024/04/10 05:24:33;;;;;;;7.53;0.80;;;;;;;7.39;100.00;99742.19;5324214;26;20206;-79
2024/04/10 05:26:59;;;;;;;3.80;0.80;;;;;;;7.52;100.00;99747.09;5325708;26;20001;-77
2024/04/10 05:29:25;;;;;;;8.77;1.30;;;;;;;7.73;100.00;99752.94;5324483;27;20032;-77
2024/04/10 05:31:50;;;;;;;4.28;0.82;;;;;;;7.88;100.00;99753.16;5318453;26;20051;-76
2024/04/10 05:34:16;;;;;;;2.85;0.65;;;;;;;8.17;100.00;99751.91;5319110;26;19989;-77
2024/04/10 05:36:41;;;;;;;2.22;0.43;;;;;;;8.29;100.00;99739.81;5310087;26;20091;-77
2024/04/10 05:39:07;;;;;;;3.10;0.60;;;;;;;8.53;100.00;99733.63;5260531;21;20012;-58
2024/04/10 05:41:32;;;;;;;3.50;0.70;;;;;;;9.54;100.00;99762.06;5201288;27;20376;-58
2024/04/10 05:43:57;;;;;;;3.95;0.98;;;;;;;11.32;100.00;99757.59;5203262;27;20461;-58
2024/04/10 05:46:26;;;;;;;4.63;0.80;;;;;;;13.26;100.00;99756.09;5185051;27;20023;-58
2024/04/10 05:48:52;;;;;;;1.80;0.63;;;;;;;14.14;100.00;99740.09;5178454;27;19997;-58
2024/04/10 05:51:17;;;;;;;4.90;0.75;;;;;;;13.72;100.00;99752.84;5190629;27;19997;-58
2024/04/10 05:53:42;;;;;;;4.65;0.70;;;;;;;12.70;100.00;99757.66;5192935;27;20087;-58
2024/04/10 05:56:08;;;;;;;5.50;1.15;;;;;;;13.06;100.00;99761.34;5183802;27;20019;-58
2024/04/10 05:58:35;;;;;;;4.40;1.08;;;;;;;14.12;100.00;99753.03;5188756;27;20012;-58
2024/04/10 06:01:07;;;;;;;4.00;0.90;;;;;;;14.76;100.00;99760.81;5182617;27;20008;-58
2024/04/10 06:03:33;;;;;;;4.60;0.63;;;;;;;14.87;100.00;99764.81;5192521;27;20019;-60
2024/04/10 06:06:05;;;;;;;4.68;0.82;;;;;;;14.06;100.00;99772.91;5184949;27;20008;-58
2024/04/10 06:08:31;;;;;;;1.33;0.50;;;;;;;13.10;100.00;99785.22;5174050;27;20072;-58
2024/04/10 06:10:56;;;;;;;8.88;1.63;;;;;;;12.48;100.00;99794.81;5179857;27;20004;-58
2024/04/10 06:14:58;;;;;;;4.13;0.80;;;;;;;11.58;100.00;99812.19;5505051;25;20720;-58
2024/04/10 06:17:26;;;;;;;5.20;0.70;;;;;;;11.18;100.00;99811.50;5469700;26;19991;-58
2024/04/10 06:19:56;;;;;;;3.55;0.65;;;;;;;11.06;100.00;99810.28;5471211;26;20326;-57
2024/04/10 06:22:22;;;;;;;4.53;0.68;;;;;;;10.96;100.00;99824.06;5485909;26;20005;-58
2024/04/10 06:24:47;;;;;;;3.47;0.77;;;;;;;10.61;100.00;99825.50;5469908;26;20354;-58
2024/04/10 06:27:14;;;;;;;4.38;0.88;;;;;;;10.19;100.00;99839.34;5475625;26;19995;-58
2024/04/10 06:29:43;;;;;;;6.97;1.15;;;;;;;10.21;100.00;99830.03;5462269;26;20391;-58
2024/04/10 06:32:08;;;;;;;3.85;0.85;;;;;;;9.99;100.00;99830.84;5469965;26;20002;-58
2024/04/10 06:34:34;;;;;;;2.80;0.73;;;;;;;10.10;100.00;99841.25;5471813;26;20038;-58
2024/04/10 06:37:00;;;;;;;3.92;0.77;;;;;;;10.16;100.00;99845.94;5473206;26;20009;-58
2024/04/10 06:39:25;;;;;;;5.93;1.00;;;;;;;10.19;100.00;99837.53;5466142;26;19998;-58
2024/04/10 06:41:51;;;;;;;7.55;0.95;;;;;;;10.47;100.00;99845.19;5466648;26;19999;-58
2024/04/10 06:44:16;;;;;;;3.35;0.70;;;;;;;10.67;100.00;99845.59;5473085;26;19995;-59
2024/04/10 06:46:42;;;;;;;5.10;0.85;;;;;;;10.88;100.00;99853.06;5475628;25;20071;-58
2024/04/10 06:49:10;;;;;;;4.50;0.77;;;;;;;10.72;100.00;99848.59;5467293;26;20006;-59
2024/04/10 06:51:37;;;;;;;4.53;0.93;;;;;;;10.97;100.00;99849.25;5467280;26;20009;-58
2024/04/10 06:54:03;;;;;;;2.03;0.75;;;;;;;11.07;100.00;99846.31;5470728;26;20003;-59
2024/04/10 06:56:28;;;;;;;7.35;0.75;;;;;;;11.25;100.00;99843.31;5462205;26;20007;-60
2024/04/10 06:58:54;;;;;;;6.93;1.10;;;;;;;11.27;100.00;99850.22;5471657;26;20002;-59
2024/04/10 07:01:20;;;;;;;4.25;0.93;;;;;;;11.53;100.00;99854.41;5474703;26;20006;-59
2024/04/10 07:03:45;;;;;;;6.07;1.23;;;;;;;11.84;100.00;99855.13;5500384;25;20048;-59
2024/04/10 07:06:13;;;;;;;4.82;0.77;;;;;;;11.94;100.00;99854.00;5463709;26;20051;-59
2024/04/10 07:08:42;;;;;;;3.78;0.80;;;;;;;12.48;100.00;99868.13;5459578;26;19999;-59
2024/04/10 07:11:09;;;;;;;8.13;0.90;;;;;;;12.76;100.00;99861.97;5467671;26;20010;-60
2024/04/10 07:13:38;;;;;;;7.05;1.30;;;;;;;12.69;100.00;99861.06;5470980;26;20022;-60
2024/04/10 07:16:04;;;;;;;7.97;1.23;;;;;;;13.04;100.00;99872.09;5466580;26;20009;-60
2024/04/10 07:18:31;;;;;;;9.13;1.13;;;;;;;13.29;100.00;99873.44;5467773;26;20002;-60
2024/04/10 07:21:07;;;;;;;7.88;0.80;;;;;;;13.69;100.00;99871.03;5461901;26;20003;-60
2024/04/10 07:23:38;;;;;;;7.07;1.58;;;;;;;14.22;100.00;99867.81;5495015;25;20007;-60
2024/04/10 07:26:07;;;;;;;6.20;1.10;;;;;;;14.28;100.00;99874.34;5459852;25;20372;-60
2024/04/10 07:28:32;;;;;;;7.68;0.98;;;;;;;14.93;100.00;99883.03;5452584;26;20438;-60
2024/04/10 07:30:58;;;;;;;11.15;0.90;;;;;;;15.06;100.00;99885.78;5454283;26;20006;-58
2024/04/10 07:33:23;;;;;;;11.45;1.15;;;;;;;15.76;100.00;99881.69;5451601;26;19999;-59
2024/04/10 07:35:49;;;;;;;7.57;0.98;;;;;;;16.65;100.00;99888.41;5470293;26;19998;-59
2024/04/10 07:38:15;;;;;;;5.47;1.02;;;;;;;17.61;96.93;99880.31;5443015;26;19999;-58
2024/04/10 07:40:41;;;;;;;4.88;1.13;;;;;;;18.37;90.77;99881.94;5464935;26;19994;-59
2024/04/10 07:43:06;;;;;;;3.35;0.80;;;;;;;18.80;84.77;99891.97;5454854;26;20010;-58
2024/04/10 07:45:33;;;;;;;6.75;1.23;;;;;;;18.90;84.19;99896.94;5457461;26;20040;-59
2024/04/10 07:48:00;;;;;;;5.05;0.90;;;;;;;18.65;81.83;99902.47;5456612;26;20032;-60
2024/04/10 07:50:25;;;;;;;7.03;1.10;;;;;;;18.29;80.69;99909.63;5456756;26;20003;-59
2024/04/10 07:52:51;;;;;;;3.85;0.85;;;;;;;18.11;82.31;99908.53;5452279;26;20072;-64
2024/04/10 07:55:16;;;;;;;8.00;1.48;;;;;;;18.57;81.43;99915.41;5463672;26;20002;-60
2024/04/10 07:57:42;;;;;;;12.60;1.55;;;;;;;17.93;78.93;99919.44;5454988;26;20003;-59
2024/04/10 08:00:08;;;;;;;3.90;1.27;;;;;;;18.27;79.90;99928.19;5457307;26;19999;-60
2024/04/10 08:02:35;;;;;;;5.68;1.10;;;;;;;18.08;78.97;99913.63;5465378;26;19999;-60
2024/04/10 08:05:00;;;;;;;6.70;0.88;;;;;;;18.21;78.46;99926.34;5459897;26;20465;-61
2024/04/10 08:07:26;;;;;;;7.20;1.13;;;;;;;17.88;79.62;99938.44;5447681;26;20009;-60
2024/04/10 08:09:51;;;;;;;7.25;1.52;;;;;;;17.46;81.19;99949.03;5448203;26;20002;-60
2024/04/10 08:12:16;;;;;;;8.13;1.10;;;;;;;17.50;81.09;99936.56;5442933;26;19995;-61
2024/04/10 08:14:42;;;;;;;4.65;1.15;;;;;;;18.03;79.18;99941.69;5443967;26;20502;-60
2024/04/10 08:17:10;;;;;;;5.82;1.02;;;;;;;18.52;78.98;99942.69;5447473;26;19998;-59
2024/04/10 08:19:35;;;;;;;5.40;0.90;;;;;;;16.61;80.92;99952.78;5449501;26;19994;-62
2024/04/10 08:22:02;;;;;;;11.40;1.45;;;;;;;16.49;83.87;99964.56;5454774;26;20589;-59
2024/04/10 08:24:27;;;;;;;3.25;0.90;;;;;;;18.43;81.83;99949.53;5457672;26;20009;-64
2024/04/10 08:26:52;;;;;;;4.97;1.10;;;;;;;19.81;74.03;99952.66;5463117;26;19994;-63
2024/04/10 08:29:19;;;;;;;7.97;1.35;;;;;;;21.58;65.87;99954.06;5449139;26;20013;-59
2024/04/10 08:31:46;;;;;;;4.95;1.20;;;;;;;20.18;64.56;99957.94;5456059;26;20011;-60
2024/04/10 08:34:11;;;;;;;10.43;1.40;;;;;;;20.35;67.72;99956.13;5454459;26;19999;-59
2024/04/10 08:36:37;;;;;;;6.82;1.65;;;;;;;17.79;70.43;99961.63;5454150;26;19998;-59
2024/04/10 08:39:04;;;;;;;5.00;1.13;;;;;;;21.49;66.31;99950.06;5444076;26;20096;-60
2024/04/10 08:41:33;;;;;;;4.65;1.00;;;;;;;25.96;58.08;99934.72;5453160;26;20007;-59
2024/04/10 08:43:58;;;;;;;8.50;1.40;;;;;;;27.39;51.37;99941.84;5456506;26;20095;-60
2024/04/10 08:46:26;;;;;;;9.48;1.40;;;;;;;28.72;47.95;99936.03;5451766;26;20003;-60
2024/04/10 08:48:54;;;;;;;8.57;1.42;;;;;;;32.82;43.30;99939.97;5449474;26;19999;-60
2024/04/10 08:51:22;;;;;;;6.40;1.40;;;;;;;31.49;41.06;99948.97;5456631;26;19998;-60
2024/04/10 08:53:50;;;;;;;5.38;1.15;;;;;;;32.48;40.46;99944.28;5448768;26;20034;-60
2024/04/10 08:56:15;;;;;;;6.78;1.20;;;;;;;32.44;38.21;99946.06;5460615;26;20345;-60
2024/04/10 08:58:41;;;;;;;8.38;1.17;;;;;;;29.09;39.31;99967.09;5451232;26;20082;-60
2024/04/10 09:01:06;;;;;;;7.53;1.00;;;;;;;31.27;39.37;99949.72;5447676;26;19998;-60
2024/04/10 09:03:36;;;;;;;6.43;1.10;;;;;;;32.79;37.71;99949.03;5446016;26;20002;-60
2024/04/10 09:06:08;;;;;;;4.78;1.00;;;;;;;31.46;36.71;99955.19;5434136;26;20435;-60
2024/04/10 09:08:34;;;;;;;5.22;1.30;;;;;;;30.00;37.58;99959.38;5446496;21;20016;-77
2024/04/10 09:10:59;;;;;;;7.00;1.52;;;;;;;29.34;37.58;99938.03;5382037;26;20208;-76
2024/04/10 09:13:25;;;;;;;7.97;1.20;;;;;;;31.48;35.99;99958.50;5385274;26;19997;-77
2024/04/10 09:15:57;;;;;;;6.70;1.20;;;;;;;31.50;35.36;99963.78;5370745;26;20001;-77
2024/04/10 09:18:23;;;;;;;5.97;1.27;;;;;;;31.39;36.63;99954.81;5369326;26;20052;-77
2024/04/10 09:20:48;;;;;;;5.47;1.25;;;;;;;29.87;37.23;99947.03;5359240;26;20004;-77
2024/04/10 09:23:15;;;;;;;4.13;1.02;;;;;;;31.36;35.88;99972.16;5364392;26;19999;-77
2024/04/10 09:25:42;;;;;;;5.25;1.10;;;;;;;31.96;34.78;99948.72;5361468;26;20058;-76
2024/04/10 09:28:08;;;;;;;5.35;1.40;;;;;;;29.77;36.25;99977.06;5370213;26;20008;-76
2024/04/10 09:30:34;;;;;;;4.95;0.98;;;;;;;28.87;37.63;99985.13;5359485;26;20059;-76
2024/04/10 09:33:01;;;;;;;8.68;1.30;;;;;;;29.01;36.78;99980.53;5360943;26;20011;-76
2024/04/10 09:35:27;;;;;;;9.43;1.42;;;;;;;28.42;37.79;99971.38;5373469;26;20012;-77
2024/04/10 09:38:03;;;;;;;4.90;1.10;;;;;;;28.34;36.73;99985.94;5351633;26;20003;-76
2024/04/10 09:40:30;;;;;;;4.00;1.00;;;;;;;27.94;37.91;99959.31;5355383;26;20183;-76
2024/04/10 09:43:06;;;;;;;9.45;1.52;;;;;;;29.62;36.84;99980.88;5355625;26;20007;-77
2024/04/10 09:45:37;;;;;;;7.90;1.35;;;;;;;28.37;36.50;99971.44;5366470;26;19993;-76
2024/04/10 09:48:09;;;;;;;8.40;1.30;;;;;;;29.68;37.13;99977.75;5369917;26;20021;-76
2024/04/10 09:50:39;;;;;;;5.35;1.05;;;;;;;29.14;36.86;99986.53;5361352;26;19993;-77
2024/04/10 09:53:06;;;;;;;4.53;0.90;;;;;;;29.73;35.51;99987.97;5367110;26;19997;-77
2024/04/10 09:55:38;;;;;;;4.38;1.20;;;;;;;31.67;35.14;99986.31;5376481;26;20028;-82
2024/04/10 09:58:05;;;;;;;5.07;1.20;;;;;;;31.19;35.03;99965.25;5369012;26;20023;-80
2024/04/10 10:00:31;;;;;;;4.70;1.20;;;;;;;31.72;34.30;99975.00;5374782;26;20004;-78
2024/04/10 10:03:08;;;;;;;6.38;0.95;;;;;;;31.97;34.14;99987.59;5352823;26;20012;-75
2024/04/10 10:05:34;;;;;;;4.05;1.00;;;;;;;32.34;34.36;99988.34;5351379;26;20174;-75
2024/04/10 10:08:11;;;;;;;3.58;1.13;;;;;;;30.40;34.65;99989.72;5362689;26;20021;-76
2024/04/10 10:10:49;;;;;;;6.97;1.13;;;;;;;31.04;34.80;99990.72;5360850;26;20011;-78
2024/04/10 10:13:14;;;;;;;6.10;0.90;;;;;;;29.32;34.71;99974.59;5365864;26;20047;-78
2024/04/10 10:15:40;;;;;;;4.90;1.08;;;;;;;27.97;36.26;99967.06;5376300;26;20000;-74
2024/04/10 10:18:06;;;;;;;4.82;1.25;;;;;;;23.08;40.57;100005.84;5365097;26;20558;-75
2024/04/10 10:20:33;;;;;;;7.07;1.00;;;;;;;24.23;41.94;99983.56;5359968;26;20004;-72
2024/04/10 10:23:03;;;;;;;4.63;0.93;;;;;;;22.60;41.42;100009.25;5355326;26;20051;-74
2024/04/10 10:25:28;;;;;;;4.32;1.17;;;;;;;21.40;42.46;99990.91;5369045;26;20001;-76
2024/04/10 10:28:14;;;;;;;6.82;1.13;;;;;;;24.78;40.54;100005.53;5361793;26;20029;-74
2024/04/10 10:30:40;;;;;;;4.55;0.90;;;;;;;24.77;38.22;99993.63;5346503;26;20002;-74
2024/04/10 10:33:06;;;;;;;5.18;0.80;;;;;;;24.16;39.04;100010.59;5357510;26;20046;-74
2024/04/10 10:35:31;;;;;;;4.97;0.88;;;;;;;23.21;37.46;99992.72;5393792;26;19999;-73
2024/04/10 10:37:57;;;;;;;4.30;1.17;;;;;;;21.95;39.05;99989.44;5377231;26;19989;-74
2024/04/10 10:40:24;;;;;;;3.53;0.77;;;;;;;21.60;40.72;99992.38;5376626;26;20000;-74
2024/04/10 10:43:06;;;;;;;4.80;0.82;;;;;;;20.36;43.62;100012.81;5370695;26;19997;-76
2024/04/10 10:45:32;;;;;;;3.88;0.82;;;;;;;23.75;41.14;99974.28;5389474;26;20032;-73
2024/04/10 10:48:04;;;;;;;5.35;1.15;;;;;;;28.06;35.72;99984.81;5360875;26;19989;-74
2024/04/10 10:50:30;;;;;;;6.47;0.93;;;;;;;28.55;36.63;99986.59;5368836;26;19993;-74
2024/04/10 10:52:56;;;;;;;6.35;1.08;;;;;;;29.79;34.71;99980.34;5363776;26;20058;-76
2024/04/10 10:55:23;;;;;;;5.25;1.00;;;;;;;28.50;34.54;99978.28;5367903;26;20059;-76
2024/04/10 10:57:48;;;;;;;6.20;1.27;;;;;;;26.54;36.96;99973.25;5357055;26;19997;-77
2024/04/10 11:00:16;;;;;;;5.32;1.00;;;;;;;24.54;37.90;99997.63;5369770;26;19997;-77
2024/04/10 11:02:42;;;;;;;4.53;0.70;;;;;;;26.98;37.10;99980.91;5366061;26;20014;-76
2024/04/10 11:05:12;;;;;;;4.25;0.80;;;;;;;28.50;34.92;99967.16;5370667;26;20007;-76
2024/04/10 11:07:38;;;;;;;4.60;1.15;;;;;;;27.63;34.85;99975.34;5370584;26;20093;-77
2024/04/10 11:10:08;;;;;;;4.10;0.70;;;;;;;29.00;34.68;99964.94;5374387;26;20268;-76
2024/04/10 11:12:34;;;;;;;7.00;1.00;;;;;;;28.11;35.90;99968.06;5374059;26;20001;-77
2024/04/10 11:15:10;;;;;;;5.68;0.82;;;;;;;23.87;36.29;99987.94;5367145;26;20008;-76
2024/04/10 11:17:36;;;;;;;4.30;0.95;;;;;;;25.77;37.39;99971.28;5367746;26;20001;-75
2024/04/10 11:20:01;;;;;;;4.03;1.02;;;;;;;25.97;36.78;99953.03;5367278;26;19996;-75
2024/04/10 11:22:26;;;;;;;4.30;1.02;;;;;;;24.21;36.20;99974.69;5367939;26;20008;-75
2024/04/10 11:24:53;;;;;;;2.30;0.75;;;;;;;25.05;36.60;99958.34;5363370;26;20094;-76
2024/04/10 11:27:19;;;;;;;5.25;1.20;;;;;;;24.77;37.17;99937.44;5368849;26;20009;-76
2024/04/10 11:29:44;;;;;;;3.83;0.70;;;;;;;26.08;38.01;99959.41;5348335;26;20004;-76
2024/04/10 11:32:09;;;;;;;5.07;0.85;;;;;;;26.85;36.13;99955.44;5373698;26;19996;-76